San Marcos, California
Current Conditions -  °F | °C
As of 1:53 PM on Saturday 20 Dec 2014 (Local Time) from KCRQ Reporting Station
Scattered Clouds Scattered Clouds  
Wind Chill: 62°   Ceiling: Unl
Heat Index: 62°   Visibility: 10mi
Dew Point: 51°   Wind: 8mph
Humidity: 67%   Direction: 280°W
Pressure: 30.13"   Gusts: NA
Location:  33.14°N, 117.15°W
Report Text: KCRQ 202153Z AUTO 28007KT 10SM SCT037 17/11 A3013 RMK AO2 SLP201 T01670106
Loading
Personal Weather Stations






























Interactive Weather Map New forecast layout! Learn more

10-Day Weather Forecast

Advertisements
Track Severe Weather on mobile